createdAt,value
2018-10-12T00:02:41.701Z,4.20
2018-10-12T00:05:10.960Z,4.30
2018-10-12T00:07:39.849Z,4.50
2018-10-12T01:02:39.965Z,3.60
2018-10-12T01:05:08.742Z,3.60
2018-10-12T01:07:37.447Z,3.70
2018-10-12T01:10:06.377Z,4.00
2018-10-12T02:02:41.118Z,3.50
2018-10-12T02:05:09.809Z,3.60
2018-10-12T02:07:38.544Z,3.70
2018-10-12T03:02:37.105Z,2.90
2018-10-12T03:05:06.569Z,2.80
2018-10-12T03:07:35.253Z,3.00
2018-10-12T03:10:04.951Z,3.20
2018-10-12T04:02:52.642Z,2.70
2018-10-12T04:05:21.325Z,2.60
2018-10-12T04:07:50.049Z,2.70
2018-10-12T04:10:19.137Z,2.90
2018-10-12T05:02:39.544Z,2.70
2018-10-12T05:05:08.287Z,2.80
2018-10-12T05:07:37.035Z,3.00
2018-10-12T05:10:05.917Z,3.20
2018-10-12T06:02:40.499Z,4.20
2018-10-12T06:05:09.429Z,4.30
2018-10-12T06:07:38.244Z,4.50
2018-10-12T06:10:07.237Z,4.70
2018-10-12T07:02:37.246Z,7.70
2018-10-12T07:05:06.096Z,7.90
2018-10-12T07:07:34.933Z,8.10
2018-10-12T07:10:04.018Z,8.40
2018-10-12T08:03:02.577Z,10.50
2018-10-12T08:05:31.420Z,10.50
2018-10-12T08:08:00.272Z,10.70
2018-10-12T08:10:29.039Z,11.00
2018-10-12T09:02:40.477Z,14.00
2018-10-12T09:05:09.212Z,14.30
2018-10-12T09:07:38.000Z,14.50
2018-10-12T09:10:07.354Z,14.90
2018-10-12T10:03:03.726Z,17.00
2018-10-12T10:05:32.657Z,17.10
2018-10-12T10:08:01.576Z,17.40
2018-10-12T11:02:37.133Z,18.40
2018-10-12T11:05:06.152Z,18.60
2018-10-12T11:07:35.033Z,18.70
2018-10-12T11:10:03.978Z,18.90
2018-10-12T12:02:53.064Z,19.10
2018-10-12T12:05:21.862Z,19.20
2018-10-12T12:07:50.602Z,19.20
2018-10-12T12:10:19.926Z,19.30
2018-10-12T13:02:37.118Z,18.80
2018-10-12T13:05:05.926Z,18.80
2018-10-12T13:07:34.677Z,18.90
2018-10-12T13:10:03.477Z,19.10
2018-10-12T14:02:38.233Z,17.90
2018-10-12T14:05:06.985Z,17.90
2018-10-12T14:07:35.749Z,18.10
2018-10-12T14:10:04.926Z,18.50
2018-10-12T15:02:37.594Z,15.80
2018-10-12T15:05:06.490Z,15.70
2018-10-12T15:07:35.341Z,15.70
2018-10-12T15:10:04.685Z,15.70
2018-10-12T16:02:37.343Z,12.20
2018-10-12T16:05:06.124Z,12.20
2018-10-12T16:07:34.879Z,12.30
2018-10-12T16:10:03.781Z,12.40
2018-10-12T17:02:47.274Z,9.90
2018-10-12T17:05:16.009Z,9.80
2018-10-12T17:07:44.765Z,10.00
2018-10-12T17:10:13.548Z,10.20
2018-10-12T18:02:37.244Z,9.40
2018-10-12T18:05:06.338Z,9.60
2018-10-12T18:07:35.212Z,9.90
2018-10-12T18:10:04.220Z,10.20
2018-10-12T19:02:36.958Z,8.30
2018-10-12T19:05:12.367Z,8.20
2018-10-12T19:07:41.170Z,8.20
2018-10-12T20:02:37.047Z,8.30
2018-10-12T20:05:05.826Z,8.50
2018-10-12T20:07:35.113Z,8.60
2018-10-12T20:10:04.049Z,8.70
2018-10-12T21:02:36.557Z,7.40
2018-10-12T21:05:05.537Z,7.50
2018-10-12T21:07:34.387Z,7.70
2018-10-12T21:10:03.397Z,7.90
2018-10-12T23:02:37.734Z,5.90
2018-10-12T23:05:07.324Z,6.00
2018-10-12T23:07:36.474Z,6.10
2018-10-12T23:10:05.624Z,6.50
